Time;durP1;ratioP1;P1;durP2;ratioP2;P2;SDS_P1;SDS_P2;PMS_P1;PMS_P2;Temp;Humidity;BMP_temperature;BMP_pressure;BME280_temperature;BME280_humidity;BME280_pressure;Samples;Min_cycle;Max_cycle;Signal;HPM_P1;HPM_P2
2023/01/09 00:00:18;;;;;;;2.63;2.00;;;;;;;5.72;100.00;99251.66;4831644;29;20033;-85
2023/01/09 00:02:44;;;;;;;2.60;1.90;;;;;;;5.77;100.00;99254.50;4831055;29;20124;-85
2023/01/09 00:05:11;;;;;;;2.33;1.70;;;;;;;5.74;100.00;99244.22;4831627;29;20037;-85
2023/01/09 00:07:37;;;;;;;3.03;1.50;;;;;;;5.73;100.00;99253.31;4832049;29;20045;-85
2023/01/09 00:10:03;;;;;;;3.13;1.60;;;;;;;5.67;100.00;99248.78;4808234;29;20502;-85
2023/01/09 00:12:29;;;;;;;1.47;1.30;;;;;;;5.67;100.00;99243.41;4832055;29;20040;-88
2023/01/09 00:14:54;;;;;;;1.30;1.03;;;;;;;5.64;100.00;99246.56;4832093;29;20105;-87
2023/01/09 00:17:19;;;;;;;1.50;1.10;;;;;;;5.63;100.00;99240.38;4848757;29;20087;-85
2023/01/09 00:19:45;;;;;;;2.43;0.90;;;;;;;5.65;100.00;99251.69;4831072;29;20056;-85
2023/01/09 00:22:10;;;;;;;1.30;1.10;;;;;;;5.63;100.00;99259.19;4835408;29;20065;-85
2023/01/09 00:24:36;;;;;;;2.57;0.93;;;;;;;5.53;100.00;99258.81;4847849;29;20060;-85
2023/01/09 00:27:02;;;;;;;2.20;1.00;;;;;;;5.56;100.00;99264.59;4834380;29;20037;-88
2023/01/09 00:29:27;;;;;;;1.17;1.07;;;;;;;5.54;100.00;99266.66;4831716;29;20042;-88
2023/01/09 00:31:53;;;;;;;1.53;1.20;;;;;;;5.52;100.00;99262.53;4831724;29;20045;-89
2023/01/09 00:34:18;;;;;;;1.17;1.07;;;;;;;5.58;100.00;99267.06;4820245;29;20065;-88
2023/01/09 00:36:43;;;;;;;1.63;1.40;;;;;;;5.43;100.00;99270.06;4824255;29;20451;-88
2023/01/09 00:39:09;;;;;;;2.37;1.50;;;;;;;5.43;100.00;99267.38;4847825;29;20066;-88
2023/01/09 00:41:44;;;;;;;1.30;1.10;;;;;;;5.39;100.00;99268.84;4833945;29;20038;-85
2023/01/09 00:44:14;;;;;;;2.07;1.17;;;;;;;5.32;100.00;99251.97;4822201;29;20052;-85
2023/01/09 00:46:44;;;;;;;1.53;1.33;;;;;;;5.29;100.00;99252.38;4831186;29;20064;-85
2023/01/09 00:49:11;;;;;;;2.63;1.60;;;;;;;5.28;100.00;99243.50;4829914;29;20041;-85
2023/01/09 00:51:38;;;;;;;1.63;1.47;;;;;;;5.20;100.00;99247.25;4830980;29;20048;-85
2023/01/09 00:54:04;;;;;;;2.20;1.47;;;;;;;5.19;100.00;99259.03;4831342;29;20041;-85
2023/01/09 00:56:30;;;;;;;2.50;1.50;;;;;;;5.17;100.00;99271.84;4829307;29;20041;-85
2023/01/09 00:58:55;;;;;;;2.43;1.40;;;;;;;5.19;100.00;99274.31;4823071;29;20046;-85
2023/01/09 01:01:21;;;;;;;2.33;1.53;;;;;;;5.14;100.00;99274.97;4847390;29;20093;-85
2023/01/09 01:03:46;;;;;;;2.13;1.70;;;;;;;5.12;100.00;99270.88;4829344;29;20501;-85
2023/01/09 01:08:56;;;;;;;3.43;1.50;;;;;;;5.07;100.00;99277.69;4847294;29;20056;-85
2023/01/09 01:11:22;;;;;;;3.00;1.90;;;;;;;5.11;100.00;99277.25;4807252;29;20033;-85
2023/01/09 01:13:47;;;;;;;2.70;1.70;;;;;;;5.07;100.00;99283.06;4822866;29;20501;-85
2023/01/09 01:16:13;;;;;;;3.20;2.10;;;;;;;5.02;100.00;99280.19;4828948;29;20128;-86
2023/01/09 01:18:39;;;;;;;2.07;1.47;;;;;;;5.06;100.00;99283.28;4833620;29;20033;-85
2023/01/09 01:21:10;;;;;;;5.53;2.00;;;;;;;5.01;100.00;99277.72;4833033;29;20190;-85
2023/01/09 01:23:36;;;;;;;2.97;1.80;;;;;;;4.98;100.00;99286.22;4830701;29;20466;-85
2023/01/09 01:26:12;;;;;;;2.93;1.70;;;;;;;4.95;100.00;99294.69;4828405;29;20041;-85
2023/01/09 01:28:38;;;;;;;1.80;1.50;;;;;;;4.92;100.00;99300.47;4822098;29;20406;-85
2023/01/09 01:31:04;;;;;;;4.03;1.60;;;;;;;4.88;100.00;99303.59;4847210;29;20037;-85
2023/01/09 01:33:31;;;;;;;3.40;2.00;;;;;;;4.87;100.00;99304.63;4845935;29;20097;-85
2023/01/09 01:36:01;;;;;;;4.00;1.80;;;;;;;4.88;100.00;99302.75;4821736;29;20739;-86
2023/01/09 01:38:27;;;;;;;2.83;2.10;;;;;;;4.87;100.00;99296.56;4833416;29;20036;-85
2023/01/09 01:40:53;;;;;;;3.17;1.90;;;;;;;4.86;100.00;99300.28;4830130;29;20029;-87
2023/01/09 01:43:19;;;;;;;4.07;2.50;;;;;;;4.85;100.00;99301.31;4816572;29;20045;-85
2023/01/09 01:45:44;;;;;;;4.97;2.77;;;;;;;4.82;100.00;99290.19;4845840;29;20450;-85
2023/01/09 01:48:26;;;;;;;5.67;3.03;;;;;;;4.85;100.00;99293.25;4803147;29;20128;-85
2023/01/09 01:51:03;;;;;;;6.83;3.40;;;;;;;4.77;100.00;99290.81;4836493;29;20048;-85
2023/01/09 01:53:34;;;;;;;9.13;4.07;;;;;;;4.77;100.00;99288.13;4828277;29;20122;-85
2023/01/09 01:56:05;;;;;;;9.57;4.33;;;;;;;4.76;100.00;99299.94;4836847;29;20049;-85
2023/01/09 01:58:35;;;;;;;7.77;3.57;;;;;;;4.81;100.00;99310.81;4830470;29;20038;-85
2023/01/09 02:01:01;;;;;;;7.17;3.70;;;;;;;4.75;100.00;99309.00;4820119;29;20128;-85
2023/01/09 02:03:27;;;;;;;7.50;3.87;;;;;;;4.75;100.00;99303.63;4832502;29;20046;-85
2023/01/09 02:05:53;;;;;;;7.43;3.87;;;;;;;4.65;100.00;99301.41;4845989;29;20037;-85
2023/01/09 02:08:20;;;;;;;8.50;4.20;;;;;;;4.65;100.00;99312.13;4821346;29;20100;-85
2023/01/09 02:10:46;;;;;;;8.40;4.00;;;;;;;4.61;100.00;99304.69;4845171;29;20100;-85
2023/01/09 02:13:12;;;;;;;8.30;4.10;;;;;;;4.52;100.00;99312.97;4831916;29;20037;-85
2023/01/09 02:15:57;;;;;;;8.77;4.30;;;;;;;4.53;100.00;99321.88;4803884;29;20056;-85
2023/01/09 02:18:50;;;;;;;7.00;3.85;;;;;;;4.51;100.00;99322.06;4843748;29;20041;-85
2023/01/09 02:21:35;;;;;;;8.60;3.80;;;;;;;4.56;100.00;99305.34;4820826;29;20043;-85
2023/01/09 02:24:15;;;;;;;7.93;3.20;;;;;;;4.47;100.00;99298.56;4845824;29;20152;-85
2023/01/09 02:27:02;;;;;;;8.33;4.10;;;;;;;4.51;100.00;99311.31;4828786;29;20040;-85
2023/01/09 02:29:44;;;;;;;7.47;3.07;;;;;;;4.54;100.00;99316.28;4845086;29;20041;-85
2023/01/09 02:32:15;;;;;;;6.90;3.57;;;;;;;4.48;100.00;99310.94;4845890;29;20037;-85
2023/01/09 02:35:05;;;;;;;9.80;4.23;;;;;;;4.49;100.00;99320.63;4828738;29;20053;-85
2023/01/09 02:38:08;;;;;;;5.83;2.53;;;;;;;4.53;100.00;99322.69;4844765;29;20041;-85
2023/01/09 02:40:45;;;;;;;6.83;2.83;;;;;;;4.46;100.00;99316.50;4832305;29;20477;-87
2023/01/09 02:43:12;;;;;;;5.93;3.17;;;;;;;4.42;100.00;99312.59;4844535;29;20072;-87
2023/01/09 02:45:37;;;;;;;8.43;3.60;;;;;;;4.38;100.00;99312.19;4817123;29;20041;-88
2023/01/09 02:48:03;;;;;;;12.33;5.30;;;;;;;4.36;100.00;99297.34;4829410;29;20099;-88
2023/01/09 02:50:42;;;;;;;11.93;5.00;;;;;;;4.34;100.00;99304.78;4791059;29;20513;-88
2023/01/09 02:53:39;;;;;;;13.47;6.00;;;;;;;4.31;100.00;99299.81;4829920;29;20034;-88
2023/01/09 02:56:19;;;;;;;10.53;5.00;;;;;;;4.29;100.00;99296.53;4833336;29;20106;-88
2023/01/09 02:58:56;;;;;;;12.57;5.40;;;;;;;4.35;100.00;99307.25;4829058;29;20126;-88
2023/01/09 03:01:45;;;;;;;8.77;4.53;;;;;;;4.38;100.00;99303.31;4831978;29;20044;-88
2023/01/09 03:04:41;;;;;;;8.20;3.70;;;;;;;4.38;100.00;99298.78;4833245;29;20171;-88
2023/01/09 03:07:12;;;;;;;7.60;3.83;;;;;;;4.36;100.00;99297.34;4821829;29;20033;-88
2023/01/09 03:09:41;;;;;;;7.57;3.67;;;;;;;4.32;100.00;99286.19;4832207;29;20573;-85
2023/01/09 03:12:17;;;;;;;8.30;3.33;;;;;;;4.33;100.00;99290.53;4818866;29;20040;-85
2023/01/09 03:14:47;;;;;;;7.53;2.90;;;;;;;4.31;100.00;99283.72;4832160;29;20495;-85
2023/01/09 03:17:17;;;;;;;6.90;3.00;;;;;;;4.28;100.00;99282.28;4829638;29;20053;-85
2023/01/09 03:19:45;;;;;;;7.03;3.00;;;;;;;4.34;100.00;99294.88;4831442;29;20116;-85
2023/01/09 03:22:10;;;;;;;5.40;2.87;;;;;;;4.28;100.00;99286.84;4845156;29;20443;-85
2023/01/09 03:24:37;;;;;;;4.20;2.60;;;;;;;4.32;100.00;99293.44;4817695;29;20084;-87
2023/01/09 03:27:07;;;;;;;8.17;3.00;;;;;;;4.29;100.00;99291.16;4806725;29;20139;-87
2023/01/09 03:29:32;;;;;;;8.43;3.00;;;;;;;4.34;100.00;99291.38;4809588;29;20034;-87
2023/01/09 03:31:58;;;;;;;7.70;3.30;;;;;;;4.36;100.00;99302.69;4844251;29;20399;-88
2023/01/09 03:34:23;;;;;;;8.23;3.10;;;;;;;4.31;100.00;99297.97;4828884;29;20049;-88
2023/01/09 03:36:48;;;;;;;7.03;3.60;;;;;;;4.32;100.00;99298.78;4845236;29;20025;-88
2023/01/09 03:39:14;;;;;;;8.40;3.00;;;;;;;4.29;100.00;99304.56;4829282;29;20061;-88
2023/01/09 03:41:39;;;;;;;6.63;3.40;;;;;;;4.30;100.00;99306.22;4812976;29;20054;-88
2023/01/09 03:44:05;;;;;;;9.87;3.30;;;;;;;4.32;100.00;99293.44;4815694;29;20037;-88
2023/01/09 03:46:30;;;;;;;6.57;3.30;;;;;;;4.35;100.00;99293.84;4832111;29;20133;-88
2023/01/09 03:48:56;;;;;;;8.87;3.40;;;;;;;4.36;100.00;99292.78;4829662;29;20496;-87
2023/01/09 03:51:22;;;;;;;9.13;3.60;;;;;;;4.33;100.00;99303.13;4813133;29;20034;-87
2023/01/09 03:53:47;;;;;;;7.33;3.40;;;;;;;4.33;100.00;99308.50;4828666;29;20029;-88
2023/01/09 03:56:12;;;;;;;7.20;3.57;;;;;;;4.35;100.00;99296.53;4805737;29;20033;-88
2023/01/09 03:58:38;;;;;;;10.73;3.60;;;;;;;4.38;100.00;99298.78;4828242;29;20049;-85
2023/01/09 04:01:08;;;;;;;10.13;3.60;;;;;;;4.37;100.00;99294.44;4828592;29;20358;-85
2023/01/09 04:03:34;;;;;;;11.10;3.40;;;;;;;4.50;100.00;99293.59;4844448;29;20168;-85
2023/01/09 04:06:00;;;;;;;9.97;3.30;;;;;;;4.52;100.00;99299.56;4836318;29;20497;-85
2023/01/09 04:08:25;;;;;;;6.20;3.13;;;;;;;4.54;100.00;99294.00;4804894;29;20442;-86
2023/01/09 04:10:51;;;;;;;4.77;2.97;;;;;;;4.57;100.00;99299.75;4827894;29;20136;-85
2023/01/09 04:13:17;;;;;;;7.00;3.60;;;;;;;4.59;100.00;99290.69;4827631;29;20046;-85
2023/01/09 04:15:43;;;;;;;8.87;3.47;;;;;;;4.62;100.00;99301.00;4819467;29;20069;-86
2023/01/09 04:18:08;;;;;;;10.17;3.63;;;;;;;4.67;100.00;99295.81;4806052;29;20486;-88
2023/01/09 04:20:34;;;;;;;6.03;3.23;;;;;;;4.68;100.00;99289.44;4828931;29;20033;-87
2023/01/09 04:22:59;;;;;;;10.37;3.90;;;;;;;4.67;100.00;99304.69;4804859;29;20037;-88
2023/01/09 04:25:26;;;;;;;8.33;3.37;;;;;;;4.73;100.00;99308.38;4829916;29;20190;-87
2023/01/09 04:27:51;;;;;;;9.13;4.00;;;;;;;4.68;100.00;99306.34;4832392;29;20676;-86
2023/01/09 04:30:17;;;;;;;10.40;3.83;;;;;;;4.70;100.00;99281.97;4830912;29;20128;-86
2023/01/09 04:32:42;;;;;;;10.43;4.10;;;;;;;4.68;100.00;99305.53;4819029;29;20038;-85
2023/01/09 04:35:08;;;;;;;12.57;4.40;;;;;;;4.64;100.00;99297.06;4847225;29;20516;-86
2023/01/09 04:37:35;;;;;;;7.00;4.10;;;;;;;4.73;100.00;99308.38;4847538;29;20029;-87
2023/01/09 04:40:10;;;;;;;9.53;4.20;;;;;;;4.72;100.00;99301.38;4831239;29;20042;-87
2023/01/09 04:42:37;;;;;;;12.50;4.40;;;;;;;4.81;100.00;99304.66;4823878;29;20056;-88
2023/01/09 04:45:03;;;;;;;8.60;3.63;;;;;;;4.79;100.00;99296.81;4822919;29;20100;-87
2023/01/09 04:47:30;;;;;;;11.93;3.20;;;;;;;4.83;100.00;99298.03;4816323;29;20115;-88
2023/01/09 04:49:56;;;;;;;11.00;3.80;;;;;;;4.87;100.00;99293.06;4822754;29;20034;-88
2023/01/09 04:52:21;;;;;;;10.87;3.77;;;;;;;4.92;100.00;99297.78;4829543;29;20034;-87
2023/01/09 04:54:46;;;;;;;7.90;2.90;;;;;;;4.92;100.00;99289.75;4834401;29;20656;-88
2023/01/09 04:57:12;;;;;;;9.03;3.27;;;;;;;4.99;100.00;99285.16;4835176;29;20148;-87
2023/01/09 04:59:37;;;;;;;10.00;3.00;;;;;;;5.03;100.00;99297.13;4837668;29;20034;-88
2023/01/09 05:02:03;;;;;;;9.80;3.03;;;;;;;5.03;100.00;99295.28;4806990;29;20030;-88
2023/01/09 05:04:28;;;;;;;7.50;2.70;;;;;;;5.09;100.00;99307.00;4829605;29;20037;-87
2023/01/09 05:06:54;;;;;;;7.93;2.70;;;;;;;5.13;100.00;99299.38;4806042;29;20038;-87
2023/01/09 05:09:20;;;;;;;8.00;2.60;;;;;;;5.14;100.00;99293.78;4846440;29;20041;-87
2023/01/09 05:11:46;;;;;;;10.10;2.80;;;;;;;5.14;100.00;99292.94;4819448;29;20041;-85
2023/01/09 05:14:11;;;;;;;10.50;3.27;;;;;;;5.24;100.00;99299.50;4813907;29;20040;-86
2023/01/09 05:16:37;;;;;;;5.77;2.77;;;;;;;5.22;100.00;99288.16;4830883;29;20069;-86
2023/01/09 05:19:02;;;;;;;7.50;2.70;;;;;;;5.30;100.00;99305.03;4819264;29;20197;-86
2023/01/09 05:21:28;;;;;;;9.00;3.20;;;;;;;5.32;100.00;99311.03;4845827;29;21450;-85
2023/01/09 05:23:53;;;;;;;8.80;2.73;;;;;;;5.30;100.00;99295.13;4831836;29;20067;-86
2023/01/09 05:26:23;;;;;;;8.03;2.93;;;;;;;5.36;100.00;99298.81;4822746;29;20076;-85
2023/01/09 05:28:51;;;;;;;8.97;3.00;;;;;;;5.37;100.00;99306.66;4833224;29;20047;-88
2023/01/09 05:31:18;;;;;;;10.80;2.87;;;;;;;5.36;100.00;99302.31;4830126;29;20033;-88
2023/01/09 05:33:43;;;;;;;10.20;2.53;;;;;;;5.49;100.00;99305.97;4846098;29;20117;-88
2023/01/09 05:36:09;;;;;;;7.10;2.33;;;;;;;5.50;100.00;99308.44;4829249;29;20033;-88
2023/01/09 05:38:34;;;;;;;10.90;3.20;;;;;;;5.51;100.00;99295.84;4808166;29;20036;-88
2023/01/09 05:41:00;;;;;;;8.67;3.00;;;;;;;5.56;100.00;99296.00;4830115;29;20026;-88
2023/01/09 05:43:25;;;;;;;10.30;2.83;;;;;;;5.61;100.00;99288.09;4815905;29;20629;-89
2023/01/09 05:45:50;;;;;;;9.00;2.80;;;;;;;5.64;100.00;99292.22;4830251;29;20058;-87
2023/01/09 05:48:16;;;;;;;8.00;2.97;;;;;;;5.70;100.00;99294.06;4845355;29;20395;-88
2023/01/09 05:50:41;;;;;;;10.17;3.13;;;;;;;5.66;100.00;99287.47;4817759;29;20038;-87
2023/01/09 05:53:07;;;;;;;9.87;2.80;;;;;;;5.70;100.00;99291.38;4833234;29;20098;-88
2023/01/09 05:55:32;;;;;;;9.40;2.60;;;;;;;5.74;100.00;99281.84;4845686;29;20034;-86
2023/01/09 05:57:58;;;;;;;9.10;2.70;;;;;;;5.74;100.00;99287.22;4843699;29;20125;-85
2023/01/09 06:00:23;;;;;;;8.53;2.50;;;;;;;5.73;100.00;99285.56;4830528;29;20482;-86
2023/01/09 06:02:48;;;;;;;8.97;3.00;;;;;;;5.75;100.00;99283.44;4832740;29;20029;-85
2023/01/09 06:05:14;;;;;;;10.37;2.83;;;;;;;5.79;100.00;99283.84;4829481;29;20093;-85
2023/01/09 06:07:40;;;;;;;8.30;2.67;;;;;;;5.80;100.00;99285.50;4830462;29;20498;-85
2023/01/09 06:10:09;;;;;;;10.27;3.10;;;;;;;5.81;100.00;99287.97;4845072;29;20033;-86
2023/01/09 06:12:35;;;;;;;9.73;3.07;;;;;;;5.86;100.00;99277.38;4828532;29;20026;-86
2023/01/09 06:15:00;;;;;;;7.40;2.53;;;;;;;5.78;100.00;99272.28;4807716;29;21057;-86
2023/01/09 06:17:25;;;;;;;11.33;2.87;;;;;;;5.80;100.00;99272.06;4836355;29;20045;-85
2023/01/09 06:19:51;;;;;;;9.60;2.43;;;;;;;5.80;100.00;99277.44;4845266;29;20041;-88
2023/01/09 06:22:16;;;;;;;7.97;2.50;;;;;;;5.74;100.00;99282.66;4832520;29;20037;-88
2023/01/09 06:24:41;;;;;;;13.67;2.93;;;;;;;5.80;100.00;99278.25;4820561;29;20045;-88
2023/01/09 06:27:07;;;;;;;12.03;2.97;;;;;;;5.80;100.00;99267.50;4804921;29;21578;-88
2023/01/09 06:29:32;;;;;;;10.80;3.10;;;;;;;5.84;100.00;99274.09;4793156;29;20422;-88
2023/01/09 06:31:57;;;;;;;8.40;2.73;;;;;;;5.88;100.00;99274.47;4847478;29;20045;-87
2023/01/09 06:34:23;;;;;;;11.40;2.87;;;;;;;5.86;100.00;99285.44;4845493;29;20053;-88
2023/01/09 06:36:48;;;;;;;10.13;2.90;;;;;;;5.84;100.00;99271.41;4822267;29;20387;-88
2023/01/09 06:39:13;;;;;;;9.87;2.90;;;;;;;5.82;100.00;99268.13;4806298;29;20538;-88
2023/01/09 06:41:39;;;;;;;12.77;2.97;;;;;;;5.93;100.00;99271.97;4820557;29;20040;-86
2023/01/09 06:44:04;;;;;;;8.53;2.73;;;;;;;5.91;100.00;99285.59;4820792;29;21074;-86
2023/01/09 06:46:30;;;;;;;10.80;2.73;;;;;;;5.96;100.00;99281.44;4820232;29;20038;-86
2023/01/09 06:48:55;;;;;;;11.87;3.17;;;;;;;6.02;100.00;99286.78;4820458;29;20205;-86
2023/01/09 06:51:20;;;;;;;11.50;3.03;;;;;;;6.00;100.00;99280.00;4820317;29;20236;-86
2023/01/09 06:53:46;;;;;;;10.50;2.60;;;;;;;6.08;100.00;99280.53;4828272;29;20113;-86
2023/01/09 06:56:11;;;;;;;13.00;4.13;;;;;;;6.14;100.00;99294.97;4844655;29;20033;-86
2023/01/09 06:58:36;;;;;;;12.83;3.40;;;;;;;6.19;100.00;99278.97;4844983;29;20064;-86
2023/01/09 07:01:02;;;;;;;10.10;3.40;;;;;;;6.22;100.00;99283.91;4844163;29;20450;-86
2023/01/09 07:03:27;;;;;;;11.20;3.13;;;;;;;6.34;100.00;99291.28;4828461;29;20042;-88
2023/01/09 07:05:53;;;;;;;11.63;4.20;;;;;;;6.32;100.00;99286.09;4829144;29;20397;-88
2023/01/09 07:08:18;;;;;;;11.17;3.03;;;;;;;6.31;100.00;99280.94;4831168;29;20038;-88
2023/01/09 07:10:44;;;;;;;8.80;2.73;;;;;;;6.30;100.00;99290.06;4828586;29;20124;-89
2023/01/09 07:13:09;;;;;;;12.53;2.90;;;;;;;6.21;100.00;99284.94;4816604;29;20478;-86
2023/01/09 07:15:35;;;;;;;9.40;2.60;;;;;;;6.22;100.00;99300.03;4816437;29;20044;-86
2023/01/09 07:18:01;;;;;;;8.17;2.43;;;;;;;6.19;100.00;99292.44;4831715;29;20571;-86
2023/01/09 07:20:26;;;;;;;8.77;2.67;;;;;;;6.16;100.00;99314.41;4828652;29;20129;-86
2023/01/09 07:22:52;;;;;;;8.07;2.40;;;;;;;6.15;100.00;99298.50;4820288;29;20399;-86
2023/01/09 07:25:18;;;;;;;9.53;2.30;;;;;;;6.16;100.00;99289.34;4829129;29;21820;-86
2023/01/09 07:27:43;;;;;;;8.57;2.43;;;;;;;6.21;100.00;99303.78;4845194;29;20033;-86
2023/01/09 07:30:09;;;;;;;10.47;2.93;;;;;;;6.24;100.00;99308.72;4805080;29;20045;-86
2023/01/09 07:32:37;;;;;;;9.10;2.20;;;;;;;6.25;100.00;99315.72;4844759;29;20048;-86
2023/01/09 07:35:03;;;;;;;6.47;2.20;;;;;;;6.20;100.00;99307.53;4844429;29;20056;-86
2023/01/09 07:37:28;;;;;;;7.57;2.40;;;;;;;6.19;100.00;99316.63;4831958;29;21506;-86
2023/01/09 07:39:53;;;;;;;10.83;2.50;;;;;;;6.20;100.00;99320.13;4828462;29;20071;-86
2023/01/09 07:42:19;;;;;;;6.23;2.50;;;;;;;6.13;100.00;99336.31;4805559;29;20758;-88
2023/01/09 07:44:44;;;;;;;7.17;2.53;;;;;;;6.23;100.00;99335.84;4845259;29;20594;-88
2023/01/09 07:47:09;;;;;;;11.27;2.87;;;;;;;6.09;100.00;99345.88;4816671;29;20042;-88
2023/01/09 07:49:35;;;;;;;8.37;2.97;;;;;;;6.12;100.00;99348.16;4819837;29;20045;-88
2023/01/09 07:52:00;;;;;;;10.03;3.00;;;;;;;6.02;100.00;99337.06;4815424;29;20493;-88
2023/01/09 07:54:26;;;;;;;9.47;3.27;;;;;;;5.89;100.00;99344.16;4828753;29;20037;-88
2023/01/09 07:56:51;;;;;;;8.50;3.30;;;;;;;5.92;100.00;99351.75;4820297;29;20044;-86
2023/01/09 07:59:17;;;;;;;8.40;3.40;;;;;;;5.89;100.00;99346.03;4845791;29;20125;-86
2023/01/09 08:01:42;;;;;;;11.30;3.07;;;;;;;5.88;100.00;99326.38;4831657;29;20037;-86
2023/01/09 08:04:07;;;;;;;9.10;2.70;;;;;;;5.87;100.00;99366.91;4832064;29;21480;-85
2023/01/09 08:06:33;;;;;;;11.70;3.33;;;;;;;5.87;100.00;99367.72;4819021;29;20478;-86
2023/01/09 08:08:58;;;;;;;9.23;3.10;;;;;;;5.89;100.00;99371.03;4848576;29;20033;-85
2023/01/09 08:11:24;;;;;;;11.10;3.47;;;;;;;5.88;100.00;99379.31;4847605;29;20052;-85
2023/01/09 08:13:50;;;;;;;13.67;3.60;;;;;;;5.88;100.00;99376.63;4831513;29;20053;-85
2023/01/09 08:16:15;;;;;;;11.40;3.43;;;;;;;5.89;100.00;99379.09;4824039;29;20124;-86
2023/01/09 08:18:41;;;;;;;11.20;3.67;;;;;;;5.93;100.00;99395.63;4845234;29;20039;-86
2023/01/09 08:21:07;;;;;;;9.53;3.87;;;;;;;5.96;100.00;99397.06;4847340;29;20112;-85
2023/01/09 08:23:32;;;;;;;9.20;3.87;;;;;;;5.97;100.00;99393.31;4855472;29;20029;-86
2023/01/09 08:25:57;;;;;;;6.47;2.90;;;;;;;5.96;100.00;99416.69;4863186;29;20116;-86
2023/01/09 08:28:23;;;;;;;9.13;3.03;;;;;;;5.99;100.00;99402.84;4860802;29;20036;-86
2023/01/09 08:30:48;;;;;;;11.13;3.63;;;;;;;5.89;100.00;99400.59;4866435;29;20033;-86
2023/01/09 08:33:14;;;;;;;11.07;3.70;;;;;;;5.88;100.00;99416.94;4848342;29;20034;-85
2023/01/09 08:35:39;;;;;;;9.13;3.73;;;;;;;5.87;100.00;99426.84;4870158;29;20104;-85
2023/01/09 08:38:04;;;;;;;10.70;4.57;;;;;;;5.85;100.00;99423.56;4818804;29;20041;-86
2023/01/09 08:40:30;;;;;;;7.97;3.67;;;;;;;5.96;100.00;99437.38;4857805;29;20034;-86
2023/01/09 08:48:23;;;;;;;10.20;4.10;;;;;;;6.11;100.00;99429.84;4847316;29;20529;-86
2023/01/09 08:50:48;;;;;;;9.13;4.30;;;;;;;6.09;100.00;99445.38;4848404;29;20045;-87
2023/01/09 08:53:14;;;;;;;9.70;4.27;;;;;;;6.12;100.00;99449.50;4830736;29;20493;-88
2023/01/09 08:55:40;;;;;;;8.47;3.80;;;;;;;6.10;100.00;99457.78;4846130;29;20095;-89
2023/01/09 08:58:05;;;;;;;8.07;3.83;;;;;;;6.13;100.00;99465.41;4832137;29;20067;-88
2023/01/09 09:00:31;;;;;;;6.17;3.67;;;;;;;6.15;100.00;99473.28;4839140;29;20492;-86
2023/01/09 09:02:58;;;;;;;11.10;4.40;;;;;;;6.17;100.00;99480.06;4822841;29;20018;-85
2023/01/09 09:05:25;;;;;;;10.03;5.03;;;;;;;6.14;100.00;99491.28;4833741;29;20131;-86
2023/01/09 09:07:53;;;;;;;10.67;6.03;;;;;;;6.13;100.00;99489.63;4847374;29;20486;-85
2023/01/09 09:10:19;;;;;;;9.00;5.30;;;;;;;6.10;100.00;99500.00;4845803;29;20033;-85
2023/01/09 09:12:48;;;;;;;9.97;5.47;;;;;;;6.07;100.00;99495.88;4821780;29;20105;-85
2023/01/09 09:15:23;;;;;;;10.77;6.03;;;;;;;6.08;100.00;99509.09;4833519;29;20026;-85
2023/01/09 09:18:03;;;;;;;8.38;6.00;;;;;;;6.05;100.00;99506.84;4821811;29;20037;-85
2023/01/09 09:20:34;;;;;;;10.13;6.37;;;;;;;6.05;100.00;99508.69;4833940;29;20388;-86
2023/01/09 09:23:00;;;;;;;11.77;7.00;;;;;;;6.08;100.00;99519.03;4830290;29;20036;-85
2023/01/09 09:25:25;;;;;;;9.23;5.63;;;;;;;6.11;100.00;99515.09;4828549;29;20042;-85
2023/01/09 09:27:51;;;;;;;9.50;5.50;;;;;;;6.13;100.00;99521.88;4839768;29;20033;-85
2023/01/09 09:30:18;;;;;;;11.27;6.20;;;;;;;6.10;100.00;99530.38;4861397;29;20033;-85
2023/01/09 09:32:44;;;;;;;11.47;6.90;;;;;;;6.20;100.00;99536.16;4849265;29;20045;-86
2023/01/09 09:35:10;;;;;;;11.20;6.70;;;;;;;6.29;100.00;99536.69;4865470;29;20056;-86
2023/01/09 09:37:36;;;;;;;9.73;5.83;;;;;;;6.24;100.00;99540.06;4854695;29;20029;-86
2023/01/09 09:40:04;;;;;;;8.93;5.30;;;;;;;6.30;100.00;99543.75;4833435;29;20037;-86
2023/01/09 09:45:59;;;;;;;9.53;5.60;;;;;;;6.32;100.00;99556.97;4865475;29;20126;-85
2023/01/09 09:48:28;;;;;;;12.57;6.60;;;;;;;6.23;100.00;99559.09;4849702;29;20045;-88
2023/01/09 09:51:12;;;;;;;10.80;5.90;;;;;;;6.34;100.00;99568.34;4844780;29;20388;-88
2023/01/09 09:53:40;;;;;;;9.93;5.68;;;;;;;6.20;100.00;99573.81;4870618;29;20040;-88
2023/01/09 09:56:11;;;;;;;9.90;5.50;;;;;;;6.14;100.00;99563.06;4849006;29;20542;-88
2023/01/09 09:58:43;;;;;;;12.37;6.17;;;;;;;6.22;100.00;99585.16;4831421;29;21935;-88
2023/01/09 10:01:14;;;;;;;10.80;6.03;;;;;;;6.42;100.00;99590.44;4865202;29;20045;-88
2023/01/09 10:04:00;;;;;;;10.33;6.03;;;;;;;6.54;100.00;99609.44;4865509;29;20565;-86
2023/01/09 10:06:29;;;;;;;11.00;5.33;;;;;;;6.53;100.00;99602.38;4866562;29;20041;-86
2023/01/09 10:09:23;;;;;;;11.10;5.90;;;;;;;6.64;100.00;99613.53;4843571;29;20033;-85
2023/01/09 10:12:04;;;;;;;11.33;5.63;;;;;;;6.66;100.00;99623.00;4848568;29;20033;-86
2023/01/09 10:14:30;;;;;;;10.43;5.90;;;;;;;6.62;100.00;99623.66;4852714;29;20034;-86
2023/01/09 10:17:14;;;;;;;10.77;6.57;;;;;;;6.58;100.00;99631.31;4832903;29;20044;-85
2023/01/09 10:20:03;;;;;;;11.13;6.17;;;;;;;6.62;100.00;99629.84;4847948;29;20033;-85
2023/01/09 10:22:34;;;;;;;9.93;5.77;;;;;;;6.57;100.00;99627.00;4801147;29;20037;-85
2023/01/09 10:25:25;;;;;;;11.60;6.27;;;;;;;6.61;100.00;99630.91;4848189;29;20037;-85
2023/01/09 10:28:12;;;;;;;12.27;6.27;;;;;;;6.73;100.00;99633.72;4846262;29;20040;-85
2023/01/09 10:31:00;;;;;;;10.50;6.90;;;;;;;6.93;100.00;99637.16;4836696;29;20120;-85
2023/01/09 10:33:57;;;;;;;10.37;5.63;;;;;;;7.20;100.00;99645.00;4844726;29;20038;-85
2023/01/09 10:36:32;;;;;;;9.50;5.60;;;;;;;7.47;100.00;99644.00;4836375;29;20046;-88
2023/01/09 10:39:03;;;;;;;7.50;4.68;;;;;;;7.39;100.00;99640.50;4821658;29;20394;-88
2023/01/09 10:41:48;;;;;;;8.73;5.43;;;;;;;7.45;100.00;99652.28;4829813;29;20094;-86
2023/01/09 10:44:23;;;;;;;11.97;5.60;;;;;;;7.31;100.00;99661.53;4845825;29;20037;-88
2023/01/09 10:46:59;;;;;;;9.57;5.57;;;;;;;7.29;100.00;99658.22;4821515;29;20153;-87
2023/01/09 10:49:25;;;;;;;10.17;4.83;;;;;;;7.08;100.00;99671.00;4828745;29;20052;-88
2023/01/09 10:52:04;;;;;;;8.57;4.60;;;;;;;7.03;100.00;99663.59;4845379;29;20387;-85
2023/01/09 10:54:29;;;;;;;8.13;4.47;;;;;;;7.19;100.00;99672.19;4831901;29;20151;-86
2023/01/09 10:57:12;;;;;;;7.33;5.17;;;;;;;7.30;100.00;99679.53;4844961;29;20043;-85
2023/01/09 10:59:39;;;;;;;8.27;5.60;;;;;;;7.51;100.00;99666.75;4828744;29;20041;-85
2023/01/09 11:02:27;;;;;;;9.90;5.30;;;;;;;7.41;100.00;99665.38;4845057;29;20483;-85
2023/01/09 11:04:53;;;;;;;9.67;4.60;;;;;;;7.40;100.00;99684.47;4843555;29;20045;-86
2023/01/09 11:07:22;;;;;;;9.17;4.57;;;;;;;7.39;100.00;99683.63;4844513;29;20101;-85
2023/01/09 11:10:04;;;;;;;11.30;5.00;;;;;;;7.28;100.00;99688.91;4845961;29;20077;-88
2023/01/09 11:12:32;;;;;;;7.73;5.10;;;;;;;7.14;100.00;99690.84;4850551;29;20030;-88
2023/01/09 11:15:15;;;;;;;14.13;5.67;;;;;;;7.19;100.00;99691.03;4841549;29;20397;-88
2023/01/09 11:17:42;;;;;;;11.53;5.43;;;;;;;7.12;100.00;99679.50;4855377;29;20048;-87
2023/01/09 11:20:15;;;;;;;15.50;6.90;;;;;;;7.08;100.00;99692.56;4826129;29;20071;-88
2023/01/09 11:22:46;;;;;;;14.60;6.90;;;;;;;7.06;100.00;99695.47;4830932;29;20459;-87
2023/01/09 11:25:17;;;;;;;13.63;6.73;;;;;;;7.06;100.00;99703.56;4821388;29;20041;-88
2023/01/09 11:27:43;;;;;;;11.50;6.40;;;;;;;7.04;100.00;99696.72;4836355;29;20037;-87
2023/01/09 11:30:08;;;;;;;13.87;5.87;;;;;;;7.00;100.00;99693.63;4817200;29;20052;-85
2023/01/09 11:32:34;;;;;;;12.17;6.03;;;;;;;7.04;100.00;99710.19;4827598;29;20092;-88
2023/01/09 11:35:05;;;;;;;14.07;6.37;;;;;;;6.95;100.00;99708.78;4823021;29;20153;-87
2023/01/09 11:37:32;;;;;;;11.33;6.57;;;;;;;6.99;100.00;99707.31;4860742;29;20444;-88
2023/01/09 11:39:59;;;;;;;14.03;6.50;;;;;;;6.97;100.00;99699.44;4849328;29;20414;-88
2023/01/09 11:43:09;;;;;;;12.13;6.37;;;;;;;7.05;100.00;99711.84;4822263;29;21821;-87
2023/01/09 11:45:18;;;;;;;14.53;6.23;;;;;;;7.17;100.00;99710.13;4855909;29;20029;-87
2023/01/09 11:47:45;;;;;;;16.30;6.30;;;;;;;7.18;100.00;99722.53;4844584;29;20071;-87
2023/01/09 11:50:19;;;;;;;11.27;6.17;;;;;;;7.20;100.00;99719.63;4873973;29;20033;-88